Time;durP1;ratioP1;P1;durP2;ratioP2;P2;SDS_P1;SDS_P2;PMS_P1;PMS_P2;Temp;Humidity;BMP_temperature;BMP_pressure;BME280_temperature;BME280_humidity;BME280_pressure;Samples;Min_cycle;Max_cycle;Signal;HPM_P1;HPM_P2
2022/02/17 00:00:41;;;;;;;0.30;0.30;;;;;;;10.42;81.10;94360.25;5114147;28;20046;-76
2022/02/17 00:03:07;;;;;;;0.45;0.45;;;;;;;10.33;82.50;94361.97;5093608;28;20131;-77
2022/02/17 00:05:33;;;;;;;0.40;0.40;;;;;;;10.22;84.09;94356.94;5097655;28;20036;-76
2022/02/17 00:07:59;;;;;;;0.45;0.32;;;;;;;10.15;84.68;94346.03;5098253;28;20036;-77
2022/02/17 00:10:26;;;;;;;0.25;0.20;;;;;;;10.09;85.41;94360.38;5102946;28;20382;-76
2022/02/17 00:12:54;;;;;;;1.95;0.43;;;;;;;10.04;86.29;94363.88;5093282;28;20053;-76
2022/02/17 00:15:20;;;;;;;0.30;0.30;;;;;;;9.91;87.83;94340.22;5093713;28;20108;-76
2022/02/17 00:17:46;;;;;;;0.40;0.40;;;;;;;9.91;87.60;94356.00;5118705;27;20043;-77
2022/02/17 00:20:12;;;;;;;0.30;0.30;;;;;;;9.88;88.61;94342.38;5108538;28;20048;-76
2022/02/17 00:22:38;;;;;;;0.85;0.52;;;;;;;9.76;89.94;94355.22;5092490;27;20049;-76
2022/02/17 00:25:05;;;;;;;0.45;0.30;;;;;;;9.80;89.46;94329.91;5102528;27;20053;-75
2022/02/17 00:27:30;;;;;;;0.68;0.45;;;;;;;9.67;89.77;94326.22;5106940;27;20036;-76
2022/02/17 00:29:56;;;;;;;0.35;0.35;;;;;;;9.77;89.54;94335.75;5104294;28;20544;-75
2022/02/17 00:32:22;;;;;;;1.10;0.43;;;;;;;9.76;88.81;94323.69;5111622;28;20160;-76
2022/02/17 00:34:47;;;;;;;0.90;0.25;;;;;;;9.83;88.60;94333.81;5098479;28;20047;-76
2022/02/17 00:37:13;;;;;;;0.20;0.20;;;;;;;9.80;88.98;94329.91;5093090;28;20044;-75
2022/02/17 00:39:38;;;;;;;0.22;0.22;;;;;;;9.91;88.42;94324.47;5112508;27;20618;-75
2022/02/17 00:42:04;;;;;;;0.32;0.32;;;;;;;9.83;88.68;94324.06;5095024;28;20064;-76
2022/02/17 00:44:30;;;;;;;0.77;0.20;;;;;;;9.92;87.77;94341.78;5092382;28;20044;-76
2022/02/17 00:46:55;;;;;;;1.35;0.25;;;;;;;10.04;85.87;94328.91;5105970;27;20051;-75
2022/02/17 00:49:23;;;;;;;0.73;0.38;;;;;;;10.11;85.52;94360.84;5108625;27;20042;-76
2022/02/17 00:51:49;;;;;;;1.25;0.10;;;;;;;10.12;85.33;94348.47;5099389;27;20069;-75
2022/02/17 00:54:14;;;;;;;0.38;0.38;;;;;;;10.13;85.35;94374.47;5092626;28;20055;-76
2022/02/17 00:56:40;;;;;;;1.15;0.45;;;;;;;10.11;85.50;94334.53;5093312;28;20097;-76
2022/02/17 00:59:06;;;;;;;0.30;0.30;;;;;;;10.15;84.82;94340.78;5106125;28;20047;-77
2022/02/17 01:01:31;;;;;;;0.80;0.40;;;;;;;10.22;84.47;94356.94;5098997;28;20169;-77
2022/02/17 01:03:57;;;;;;;1.23;0.20;;;;;;;10.28;83.87;94348.94;5092279;28;20036;-77
2022/02/17 01:06:22;;;;;;;0.30;0.30;;;;;;;10.20;83.96;94337.25;5100832;28;20497;-76
2022/02/17 01:08:48;;;;;;;0.20;0.15;;;;;;;10.37;83.12;94320.88;5099718;28;20067;-76
2022/02/17 01:11:14;;;;;;;0.40;0.35;;;;;;;10.41;82.68;94321.84;5103039;28;20524;-75
2022/02/17 01:13:39;;;;;;;0.43;0.20;;;;;;;10.40;82.74;94309.78;5092950;28;20040;-76
2022/02/17 01:16:06;;;;;;;0.43;0.40;;;;;;;10.38;82.66;94291.66;5102102;28;20152;-76
2022/02/17 01:18:31;;;;;;;0.43;0.25;;;;;;;10.46;82.01;94298.09;5108135;28;20035;-75
2022/02/17 01:20:57;;;;;;;1.02;0.30;;;;;;;10.46;82.41;94313.88;5100208;28;20036;-75
2022/02/17 01:23:23;;;;;;;0.32;0.25;;;;;;;10.41;82.56;94337.63;5092040;28;20044;-75
2022/02/17 01:25:48;;;;;;;0.75;0.47;;;;;;;10.43;82.06;94324.97;5092083;28;20413;-75
2022/02/17 01:28:14;;;;;;;2.17;0.50;;;;;;;10.51;81.96;94347.94;5091089;28;20048;-74
2022/02/17 01:30:40;;;;;;;1.23;0.28;;;;;;;10.44;81.90;94355.44;5098304;28;20489;-75
2022/02/17 01:33:06;;;;;;;0.73;0.25;;;;;;;10.53;81.78;94351.06;5101110;28;20051;-75
2022/02/17 01:35:32;;;;;;;1.00;0.40;;;;;;;10.51;81.49;94342.66;5091689;28;20043;-74
2022/02/17 01:37:57;;;;;;;0.85;0.43;;;;;;;10.65;81.18;94326.09;5094755;28;20032;-75
2022/02/17 01:40:23;;;;;;;0.20;0.20;;;;;;;10.56;81.47;94324.16;5105841;28;20169;-75
2022/02/17 01:42:49;;;;;;;0.20;0.20;;;;;;;10.50;81.92;94346.41;5096184;28;20097;-77
2022/02/17 01:45:14;;;;;;;0.30;0.30;;;;;;;10.50;81.57;94330.63;5098508;28;20059;-75
2022/02/17 01:47:44;;;;;;;0.20;0.20;;;;;;;10.56;81.40;94339.94;5091624;28;20040;-76
2022/02/17 01:50:10;;;;;;;0.13;0.13;;;;;;;10.65;80.38;94321.59;5103414;28;20043;-76
2022/02/17 01:52:36;;;;;;;0.82;0.22;;;;;;;10.56;80.29;94300.47;5097291;28;20394;-76
2022/02/17 01:55:02;;;;;;;0.20;0.20;;;;;;;10.62;80.85;94310.91;5092380;28;20123;-75
2022/02/17 01:57:29;;;;;;;0.32;0.30;;;;;;;10.69;79.73;94308.63;5091286;28;20079;-76
2022/02/17 01:59:55;;;;;;;1.75;0.35;;;;;;;10.58;80.83;94295.69;5100796;28;20027;-75
2022/02/17 02:02:21;;;;;;;0.20;0.20;;;;;;;10.65;79.73;94292.66;5104549;28;20051;-76
2022/02/17 02:04:47;;;;;;;0.50;0.15;;;;;;;10.73;79.46;94291.13;5105370;27;20043;-76
2022/02/17 02:07:13;;;;;;;2.08;0.30;;;;;;;10.71;78.67;94278.28;5091453;28;20533;-76
2022/02/17 02:09:40;;;;;;;2.38;0.40;;;;;;;10.67;79.00;94276.56;5101269;28;20039;-76
2022/02/17 02:12:06;;;;;;;0.22;0.15;;;;;;;10.77;78.29;94244.72;5103088;28;20432;-76
2022/02/17 02:14:32;;;;;;;0.20;0.20;;;;;;;10.80;77.77;94275.72;5109934;28;20044;-76
2022/02/17 02:16:58;;;;;;;0.30;0.30;;;;;;;10.89;76.96;94258.13;5107970;28;20035;-76
2022/02/17 02:19:24;;;;;;;0.30;0.30;;;;;;;10.89;77.30;94273.16;5091037;28;20036;-76
2022/02/17 02:21:49;;;;;;;0.80;0.40;;;;;;;10.87;77.34;94276.06;5090734;28;20512;-76
2022/02/17 02:24:15;;;;;;;1.85;0.38;;;;;;;10.87;76.78;94260.25;5091428;28;20089;-75
2022/02/17 02:26:41;;;;;;;0.17;0.17;;;;;;;10.92;75.71;94247.00;5095301;28;20036;-74
2022/02/17 02:29:06;;;;;;;0.20;0.20;;;;;;;10.96;75.85;94246.38;5098710;28;20044;-75
2022/02/17 02:31:33;;;;;;;0.28;0.28;;;;;;;11.01;75.15;94249.66;5106436;28;20123;-76
2022/02/17 02:33:58;;;;;;;0.35;0.35;;;;;;;10.92;75.74;94246.22;5091301;28;20143;-75
2022/02/17 02:36:25;;;;;;;0.20;0.20;;;;;;;11.03;74.70;94257.25;5090187;28;20136;-76
2022/02/17 02:38:51;;;;;;;0.35;0.35;;;;;;;11.08;74.43;94254.50;5106824;27;20043;-75
2022/02/17 02:41:17;;;;;;;0.30;0.30;;;;;;;11.07;73.93;94237.16;5093088;28;20116;-75
2022/02/17 02:43:43;;;;;;;0.20;0.20;;;;;;;11.05;74.46;94228.78;5109686;28;20059;-75
2022/02/17 02:46:09;;;;;;;0.43;0.20;;;;;;;11.03;73.72;94217.78;5095501;28;20048;-76
2022/02/17 02:48:34;;;;;;;0.57;0.22;;;;;;;11.09;73.50;94227.88;5097680;28;20048;-75
2022/02/17 02:51:00;;;;;;;1.02;0.38;;;;;;;11.12;73.05;94213.34;5102951;28;20050;-75
2022/02/17 02:53:26;;;;;;;0.57;0.40;;;;;;;11.20;72.25;94231.00;5108215;28;20145;-75
2022/02/17 02:55:51;;;;;;;0.47;0.30;;;;;;;11.19;72.79;94221.56;5102842;27;20048;-75
2022/02/17 02:58:18;;;;;;;0.20;0.20;;;;;;;11.18;72.38;94232.41;5108168;28;20085;-76
2022/02/17 03:00:46;;;;;;;0.82;0.20;;;;;;;11.21;72.13;94205.47;5109347;28;20050;-76
2022/02/17 03:03:12;;;;;;;2.58;0.40;;;;;;;11.25;71.44;94191.38;5105232;28;20036;-76
2022/02/17 03:05:39;;;;;;;0.20;0.20;;;;;;;11.25;71.17;94166.91;5090030;28;20036;-76
2022/02/17 03:08:06;;;;;;;0.57;0.43;;;;;;;11.12;72.18;94165.94;5097348;28;20140;-76
2022/02/17 03:10:32;;;;;;;0.20;0.15;;;;;;;11.08;72.60;94191.31;5110783;27;20047;-76
2022/02/17 03:12:59;;;;;;;0.20;0.20;;;;;;;11.30;70.46;94192.31;5101242;27;20044;-76
2022/02/17 03:15:24;;;;;;;0.10;0.10;;;;;;;11.32;70.83;94205.94;5113240;27;20118;-77
2022/02/17 03:17:50;;;;;;;0.20;0.20;;;;;;;11.27;70.68;94220.81;5090070;28;20115;-75
2022/02/17 03:20:17;;;;;;;0.30;0.30;;;;;;;11.35;70.11;94221.13;5090002;28;20047;-77
2022/02/17 03:22:43;;;;;;;0.13;0.13;;;;;;;11.22;70.79;94202.53;5107619;28;20107;-76
2022/02/17 03:25:11;;;;;;;0.22;0.22;;;;;;;11.18;70.56;94222.63;5093760;28;20492;-76
2022/02/17 03:27:38;;;;;;;0.30;0.30;;;;;;;11.14;71.11;94190.09;5098262;28;20497;-77
2022/02/17 03:30:09;;;;;;;0.10;0.10;;;;;;;11.06;70.83;94182.94;5108191;28;20043;-76
2022/02/17 03:32:36;;;;;;;0.10;0.10;;;;;;;10.97;71.19;94200.56;5109507;27;20148;-76
2022/02/17 03:35:04;;;;;;;0.28;0.28;;;;;;;11.27;69.74;94176.03;5111861;27;20580;-76
2022/02/17 03:37:30;;;;;;;0.40;0.40;;;;;;;11.20;70.24;94173.06;5104356;28;20066;-77
2022/02/17 03:39:56;;;;;;;0.28;0.28;;;;;;;11.25;69.46;94170.31;5095352;28;20043;-76
2022/02/17 03:42:21;;;;;;;0.20;0.20;;;;;;;11.15;69.60;94170.59;5089606;28;20036;-77
2022/02/17 03:44:47;;;;;;;0.40;0.40;;;;;;;11.10;70.03;94136.50;5099613;28;20111;-77
2022/02/17 03:47:13;;;;;;;2.42;0.47;;;;;;;11.12;69.61;94144.88;5108276;28;20040;-77
2022/02/17 03:49:38;;;;;;;4.25;0.28;;;;;;;11.07;69.33;94142.38;5108656;28;20051;-76
2022/02/17 03:52:04;;;;;;;0.20;0.20;;;;;;;11.04;69.09;94150.88;5114517;27;20048;-75
2022/02/17 03:54:30;;;;;;;0.20;0.20;;;;;;;11.11;69.21;94164.38;5122982;27;20043;-74
2022/02/17 03:56:55;;;;;;;0.10;0.10;;;;;;;11.00;69.38;94171.00;5096291;28;20078;-75
2022/02/17 03:59:21;;;;;;;0.20;0.20;;;;;;;11.01;69.17;94164.66;5089208;28;20048;-75
2022/02/17 04:01:46;;;;;;;1.15;0.38;;;;;;;11.04;68.88;94153.53;5091547;28;20048;-76
2022/02/17 04:04:12;;;;;;;0.10;0.10;;;;;;;11.02;68.93;94153.03;5089102;28;20085;-75
2022/02/17 04:06:38;;;;;;;0.20;0.20;;;;;;;11.00;69.60;94152.56;5089029;28;20047;-75
2022/02/17 04:09:05;;;;;;;0.10;0.10;;;;;;;11.17;68.44;94147.34;5088795;28;20463;-75
2022/02/17 04:11:31;;;;;;;0.20;0.20;;;;;;;11.14;68.55;94163.75;5114217;28;20047;-75
2022/02/17 04:13:57;;;;;;;0.43;0.20;;;;;;;11.09;69.29;94161.25;5100787;28;20066;-75
2022/02/17 04:16:23;;;;;;;1.17;0.45;;;;;;;11.11;69.39;94190.72;5112888;28;20039;-75
2022/02/17 04:18:49;;;;;;;0.57;0.40;;;;;;;11.08;69.55;94159.72;5111234;28;20044;-75
2022/02/17 04:21:17;;;;;;;1.02;0.10;;;;;;;11.09;69.62;94166.53;5088897;28;20063;-75
2022/02/17 04:23:46;;;;;;;1.98;0.28;;;;;;;11.01;70.17;94162.78;5088981;28;20043;-75
2022/02/17 04:26:14;;;;;;;0.40;0.30;;;;;;;11.06;70.35;94169.78;5089737;28;20036;-76
2022/02/17 04:28:41;;;;;;;0.10;0.10;;;;;;;11.01;70.01;94175.19;5096426;28;20157;-75
2022/02/17 04:31:07;;;;;;;0.10;0.10;;;;;;;10.95;70.51;94174.56;5115441;27;20043;-76
2022/02/17 04:33:33;;;;;;;0.52;0.20;;;;;;;10.94;70.72;94169.59;5115901;27;20043;-76
2022/02/17 04:35:59;;;;;;;0.10;0.10;;;;;;;10.99;70.31;94177.34;5105403;27;20050;-75
2022/02/17 04:38:25;;;;;;;0.25;0.22;;;;;;;10.76;71.76;94180.03;5108247;28;20066;-75
2022/02/17 04:43:34;;;;;;;0.50;0.30;;;;;;;10.79;71.81;94168.91;5095663;28;20040;-74
2022/02/17 04:46:00;;;;;;;0.13;0.13;;;;;;;10.72;72.44;94158.81;5095395;28;20109;-75
2022/02/17 04:48:25;;;;;;;0.13;0.10;;;;;;;10.75;72.42;94167.97;5094867;28;20109;-75
2022/02/17 04:50:51;;;;;;;0.20;0.20;;;;;;;10.74;72.67;94179.56;5105210;28;20042;-75
2022/02/17 04:53:17;;;;;;;0.43;0.35;;;;;;;10.70;72.17;94154.91;5112406;27;20043;-75
2022/02/17 04:55:43;;;;;;;0.57;0.52;;;;;;;10.62;72.67;94174.88;5102814;28;20036;-77
2022/02/17 04:58:09;;;;;;;0.10;0.10;;;;;;;10.70;72.68;94160.19;5091804;28;20048;-78
2022/02/17 05:00:35;;;;;;;0.13;0.10;;;;;;;10.74;72.39;94171.66;5094199;28;20035;-76
2022/02/17 05:03:01;;;;;;;1.08;0.20;;;;;;;10.64;73.20;94177.19;5102050;28;20069;-77
2022/02/17 05:05:26;;;;;;;0.55;0.30;;;;;;;10.64;73.32;94187.72;5092035;28;20140;-77
2022/02/17 05:07:52;;;;;;;0.28;0.22;;;;;;;10.73;73.96;94212.19;5092957;28;20036;-76
2022/02/17 05:10:18;;;;;;;0.05;0.05;;;;;;;10.76;73.35;94195.84;5099961;27;20421;-77
2022/02/17 05:12:43;;;;;;;0.25;0.22;;;;;;;10.64;73.86;94200.88;5093015;28;20123;-75
2022/02/17 05:15:09;;;;;;;0.17;0.17;;;;;;;10.72;73.95;94215.94;5102356;28;20105;-76
2022/02/17 05:17:35;;;;;;;3.10;0.30;;;;;;;10.66;74.31;94219.75;5120439;27;20454;-75
2022/02/17 05:20:00;;;;;;;0.28;0.10;;;;;;;10.53;74.93;94224.78;5109397;28;20054;-73
2022/02/17 05:22:26;;;;;;;0.32;0.25;;;;;;;10.55;75.03;94227.88;5100212;28;20048;-75
2022/02/17 05:24:51;;;;;;;0.30;0.28;;;;;;;10.57;75.00;94223.13;5093057;28;20096;-76
2022/02/17 05:27:17;;;;;;;0.25;0.25;;;;;;;10.63;74.77;94208.00;5107907;28;20036;-77
2022/02/17 05:29:42;;;;;;;0.28;0.28;;;;;;;10.58;75.27;94216.75;5110468;27;20035;-76
2022/02/17 05:32:08;;;;;;;0.13;0.13;;;;;;;10.45;75.49;94222.88;5094572;27;20047;-75
2022/02/17 05:34:34;;;;;;;0.20;0.20;;;;;;;10.51;76.11;94221.66;5105392;28;20058;-76
2022/02/17 05:37:01;;;;;;;0.60;0.30;;;;;;;10.48;75.72;94214.38;5098981;27;20036;-75
2022/02/17 05:39:27;;;;;;;0.70;0.15;;;;;;;10.47;75.90;94207.56;5115049;27;20110;-75
2022/02/17 05:41:53;;;;;;;0.10;0.10;;;;;;;10.55;75.86;94212.09;5108158;28;20039;-76
2022/02/17 05:44:19;;;;;;;0.52;0.25;;;;;;;10.50;76.20;94193.03;5107004;27;20501;-73
2022/02/17 05:46:45;;;;;;;0.10;0.10;;;;;;;10.49;75.98;94229.09;5115991;27;20516;-75
2022/02/17 05:49:11;;;;;;;0.43;0.35;;;;;;;10.45;76.55;94212.34;5122593;27;20047;-75
2022/02/17 05:51:36;;;;;;;0.57;0.43;;;;;;;10.50;76.26;94209.63;5114328;27;20489;-75
2022/02/17 05:54:02;;;;;;;0.30;0.30;;;;;;;10.39;77.08;94210.94;5112438;27;20136;-76
2022/02/17 05:56:28;;;;;;;0.52;0.15;;;;;;;10.48;76.91;94251.22;5113102;27;20039;-76
2022/02/17 05:58:53;;;;;;;0.47;0.17;;;;;;;10.48;77.04;94201.22;5112927;27;20063;-73
2022/02/17 06:01:19;;;;;;;0.20;0.20;;;;;;;10.51;76.64;94226.94;5090887;28;20113;-75
2022/02/17 06:03:44;;;;;;;0.10;0.10;;;;;;;10.50;77.11;94225.41;5091527;28;20072;-75
2022/02/17 06:06:10;;;;;;;5.07;1.08;;;;;;;10.39;77.54;94234.59;5091751;28;20055;-76
2022/02/17 06:08:35;;;;;;;0.57;0.25;;;;;;;10.51;76.88;94216.41;5091285;28;20177;-75
2022/02/17 06:11:01;;;;;;;0.57;0.20;;;;;;;10.52;76.93;94222.47;5104136;27;20039;-74
2022/02/17 06:13:27;;;;;;;0.13;0.13;;;;;;;10.56;76.84;94200.50;5111094;27;20521;-75
2022/02/17 06:15:52;;;;;;;0.35;0.17;;;;;;;10.50;76.82;94245.66;5107192;27;20110;-76
2022/02/17 06:18:18;;;;;;;0.47;0.20;;;;;;;10.47;77.16;94236.50;5101421;27;20078;-76
2022/02/17 06:20:43;;;;;;;1.60;0.50;;;;;;;10.44;77.60;94239.72;5099660;27;20039;-75
2022/02/17 06:23:09;;;;;;;1.17;0.82;;;;;;;10.41;77.68;94232.44;5100370;28;20118;-76
2022/02/17 06:25:34;;;;;;;0.52;0.45;;;;;;;10.47;77.24;94241.75;5097855;27;20036;-76
2022/02/17 06:28:02;;;;;;;0.30;0.25;;;;;;;10.43;77.46;94235.56;5090853;28;20048;-75
2022/02/17 06:30:27;;;;;;;0.90;0.25;;;;;;;10.49;77.13;94228.34;5101142;28;20542;-76
2022/02/17 06:32:56;;;;;;;0.10;0.10;;;;;;;10.39;77.81;94224.09;5108060;28;20146;-76
2022/02/17 06:35:26;;;;;;;0.63;0.20;;;;;;;10.30;78.12;94239.78;5098266;28;20050;-76
2022/02/17 06:37:53;;;;;;;0.20;0.20;;;;;;;10.48;77.45;94226.78;5103419;27;20035;-76
2022/02/17 06:40:20;;;;;;;0.10;0.10;;;;;;;10.37;77.85;94215.69;5104323;28;20039;-77
2022/02/17 06:42:46;;;;;;;0.45;0.43;;;;;;;10.33;78.29;94230.50;5098018;28;20038;-78
2022/02/17 06:45:13;;;;;;;4.03;0.50;;;;;;;10.33;78.44;94241.00;5098127;28;20048;-78
2022/02/17 06:47:39;;;;;;;0.15;0.15;;;;;;;10.33;78.41;94235.75;5100654;28;20040;-77
2022/02/17 06:50:06;;;;;;;0.17;0.17;;;;;;;10.46;77.67;94245.47;5099883;28;20032;-77
2022/02/17 06:52:32;;;;;;;0.43;0.20;;;;;;;10.49;77.27;94223.06;5093111;28;20115;-76
2022/02/17 06:54:59;;;;;;;1.70;0.32;;;;;;;10.44;77.52;94247.63;5098824;28;20513;-76
2022/02/17 06:57:24;;;;;;;0.47;0.35;;;;;;;10.31;77.80;94248.44;5098242;28;20100;-78
2022/02/17 06:59:52;;;;;;;0.55;0.38;;;;;;;10.44;76.87;94247.63;5107955;27;20038;-76
2022/02/17 07:02:25;;;;;;;0.20;0.20;;;;;;;10.48;76.92;94248.56;5111214;27;20046;-76
2022/02/17 07:04:51;;;;;;;0.40;0.13;;;;;;;10.53;76.49;94251.09;5100291;28;20067;-77
2022/02/17 07:07:17;;;;;;;0.55;0.40;;;;;;;10.43;76.97;94261.88;5091194;28;20051;-76
2022/02/17 07:09:43;;;;;;;0.60;0.28;;;;;;;10.44;77.08;94237.09;5097248;28;20066;-76
2022/02/17 07:12:10;;;;;;;2.42;0.88;;;;;;;10.53;76.70;94252.94;5095103;28;20065;-76
2022/02/17 07:14:35;;;;;;;0.52;0.47;;;;;;;10.45;77.69;94254.44;5091590;27;20032;-76
2022/02/17 07:17:01;;;;;;;0.17;0.17;;;;;;;10.65;76.95;94278.72;5094824;28;20503;-77
2022/02/17 07:19:26;;;;;;;0.10;0.10;;;;;;;10.66;77.28;94275.00;5096788;27;20048;-75
2022/02/17 07:21:52;;;;;;;0.28;0.28;;;;;;;10.71;77.49;94282.78;5111550;27;20035;-75
2022/02/17 07:24:19;;;;;;;0.85;0.40;;;;;;;10.76;77.13;94274.78;5114861;27;20496;-76
2022/02/17 07:26:45;;;;;;;0.28;0.28;;;;;;;10.74;77.00;94271.66;5091330;28;20489;-76
2022/02/17 07:29:12;;;;;;;0.20;0.20;;;;;;;10.76;77.53;94290.56;5090325;28;20047;-75
2022/02/17 07:31:38;;;;;;;1.38;0.50;;;;;;;10.77;77.12;94276.31;5090520;28;20497;-75
2022/02/17 07:34:04;;;;;;;1.58;0.20;;;;;;;10.83;77.29;94296.19;5108831;28;20051;-77
2022/02/17 07:36:30;;;;;;;0.43;0.40;;;;;;;10.79;77.51;94295.22;5095417;28;20048;-75
2022/02/17 07:38:56;;;;;;;0.40;0.40;;;;;;;10.86;76.82;94295.56;5104740;27;20044;-75
2022/02/17 07:41:21;;;;;;;0.80;0.70;;;;;;;10.91;77.16;94303.34;5108666;27;20066;-76
2022/02/17 07:43:47;;;;;;;0.40;0.25;;;;;;;10.95;76.90;94292.19;5109540;28;20386;-76
2022/02/17 07:46:14;;;;;;;0.40;0.30;;;;;;;10.94;77.67;94293.31;5109484;27;20051;-76
2022/02/17 07:48:40;;;;;;;2.33;0.50;;;;;;;10.88;77.54;94306.56;5112741;27;20089;-76
2022/02/17 07:51:06;;;;;;;0.17;0.17;;;;;;;10.92;77.71;94299.63;5089620;28;20040;-76
2022/02/17 07:53:32;;;;;;;0.15;0.15;;;;;;;10.98;76.80;94302.16;5095634;28;20040;-76
2022/02/17 07:55:58;;;;;;;1.30;0.43;;;;;;;11.05;76.28;94307.75;5106172;28;20116;-76
2022/02/17 07:58:25;;;;;;;0.20;0.20;;;;;;;11.10;75.39;94302.34;5109116;28;20061;-75
2022/02/17 08:00:50;;;;;;;0.93;0.38;;;;;;;11.11;75.56;94317.09;5115301;28;20042;-76
2022/02/17 08:03:16;;;;;;;0.63;0.40;;;;;;;11.17;74.65;94294.81;5091360;28;20040;-77
2022/02/17 08:05:41;;;;;;;0.30;0.30;;;;;;;11.30;73.78;94318.72;5095855;28;20040;-76
2022/02/17 08:08:11;;;;;;;2.05;0.40;;;;;;;11.31;73.97;94317.66;5114140;28;20042;-75
2022/02/17 08:10:37;;;;;;;2.10;0.45;;;;;;;11.35;73.90;94326.50;5099661;28;20044;-77
2022/02/17 08:13:06;;;;;;;0.30;0.30;;;;;;;11.36;73.63;94328.06;5096465;28;20051;-77
2022/02/17 08:15:32;;;;;;;0.82;0.47;;;;;;;11.32;74.00;94371.88;5089320;28;20043;-76
2022/02/17 08:17:59;;;;;;;4.85;0.47;;;;;;;11.23;77.12;94346.28;5102095;28;20043;-76
2022/02/17 08:20:25;;;;;;;0.20;0.20;;;;;;;10.81;80.86;94343.06;5105508;28;20036;-76
2022/02/17 08:22:52;;;;;;;0.65;0.38;;;;;;;10.73;82.78;94359.56;5112454;27;20043;-76
2022/02/17 08:25:20;;;;;;;0.22;0.22;;;;;;;10.62;83.27;94348.50;5106737;28;20040;-76
2022/02/17 08:27:49;;;;;;;0.70;0.47;;;;;;;10.50;84.37;94341.13;5104036;28;20063;-78
2022/02/17 08:30:15;;;;;;;1.00;0.38;;;;;;;10.47;84.70;94331.19;5103775;28;20044;-78
2022/02/17 08:32:41;;;;;;;1.63;0.60;;;;;;;10.51;83.94;94347.94;5095520;28;20509;-75
2022/02/17 08:35:10;;;;;;;0.50;0.20;;;;;;;10.58;84.48;94348.28;5093769;28;20044;-76
2022/02/17 08:37:40;;;;;;;1.73;0.40;;;;;;;10.62;82.35;94337.22;5097559;27;20036;-75
2022/02/17 08:40:07;;;;;;;0.75;0.17;;;;;;;10.94;78.27;94369.63;5103201;27;21525;-74
2022/02/17 08:42:33;;;;;;;1.02;0.40;;;;;;;10.87;80.16;94355.00;5105025;28;20040;-75
2022/02/17 08:44:59;;;;;;;0.77;0.60;;;;;;;10.92;79.13;94352.28;5096323;28;22180;-76
2022/02/17 08:47:25;;;;;;;0.30;0.25;;;;;;;10.96;79.10;94383.25;5105250;28;20036;-75
2022/02/17 08:49:51;;;;;;;0.38;0.32;;;;;;;11.00;79.29;94400.00;5093929;28;20043;-74
2022/02/17 08:52:17;;;;;;;0.38;0.35;;;;;;;11.06;78.10;94393.53;5106287;28;20118;-75
2022/02/17 08:54:43;;;;;;;2.88;0.50;;;;;;;11.12;78.85;94413.44;5106419;28;20051;-75
2022/02/17 08:57:09;;;;;;;0.65;0.60;;;;;;;11.10;78.86;94426.09;5104908;28;20043;-75
2022/02/17 08:59:34;;;;;;;1.48;0.40;;;;;;;10.92;81.41;94410.19;5097045;28;20040;-76
2022/02/17 09:02:00;;;;;;;1.00;0.40;;;;;;;10.63;85.72;94434.25;5104288;28;20052;-75
2022/02/17 09:04:27;;;;;;;1.40;0.40;;;;;;;10.45;88.22;94443.81;5108146;28;20115;-75
2022/02/17 09:06:54;;;;;;;3.95;0.80;;;;;;;10.17;91.89;94443.81;5098317;28;20495;-75
2022/02/17 09:09:19;;;;;;;1.52;0.50;;;;;;;9.89;95.88;94449.03;5102326;28;20094;-75
2022/02/17 09:11:45;;;;;;;0.60;0.32;;;;;;;9.77;96.20;94446.09;5105267;28;20503;-75
2022/02/17 09:14:11;;;;;;;2.40;0.90;;;;;;;9.62;98.68;94444.50;5092571;28;20126;-75
2022/02/17 09:16:37;;;;;;;0.82;0.60;;;;;;;9.57;100.00;94444.63;5101982;28;20043;-76
2022/02/17 09:19:04;;;;;;;1.17;0.50;;;;;;;9.39;100.00;94440.94;5105509;27;20036;-75
2022/02/17 09:21:31;;;;;;;0.40;0.40;;;;;;;9.30;100.00;94437.44;5119543;27;20114;-75
2022/02/17 09:23:56;;;;;;;0.85;0.50;;;;;;;9.25;100.00;94445.38;5114545;27;20027;-75
2022/02/17 09:26:22;;;;;;;1.10;0.60;;;;;;;9.25;100.00;94445.38;5102537;28;20473;-75
2022/02/17 09:28:48;;;;;;;1.67;0.60;;;;;;;9.23;100.00;94421.28;5102387;28;20042;-75
2022/02/17 09:31:23;;;;;;;1.67;0.80;;;;;;;9.29;100.00;94435.88;5098934;27;20570;-78
2022/02/17 09:33:55;;;;;;;1.38;0.73;;;;;;;9.14;100.00;94424.53;5113927;27;20112;-78
2022/02/17 09:36:22;;;;;;;2.25;1.00;;;;;;;9.39;100.00;94422.56;5102978;28;20054;-74
2022/02/17 09:38:48;;;;;;;2.95;0.77;;;;;;;9.43;100.00;94452.44;5116562;27;20063;-74
2022/02/17 09:41:16;;;;;;;1.88;0.70;;;;;;;9.45;100.00;94426.69;5110732;27;20040;-76
2022/02/17 09:43:43;;;;;;;0.93;0.70;;;;;;;9.71;98.92;94431.47;5115103;27;20047;-76
2022/02/17 09:46:12;;;;;;;0.82;0.47;;;;;;;9.78;99.47;94431.88;5116477;27;20039;-75
2022/02/17 09:48:40;;;;;;;2.30;0.70;;;;;;;9.73;100.00;94453.00;5104708;28;20047;-75
2022/02/17 09:51:06;;;;;;;2.72;0.68;;;;;;;9.71;100.00;94442.00;5095325;28;20101;-77
2022/02/17 09:53:31;;;;;;;1.63;0.70;;;;;;;9.59;100.00;94449.56;5105623;28;20039;-75
2022/02/17 09:55:57;;;;;;;3.22;0.60;;;;;;;9.62;99.64;94470.00;5103907;28;20040;-75
2022/02/17 09:58:23;;;;;;;1.50;0.70;;;;;;;9.57;100.00;94475.34;5097507;28;20043;-75
2022/02/17 10:00:48;;;;;;;0.55;0.50;;;;;;;9.48;100.00;94449.75;5110288;28;20115;-76
2022/02/17 10:03:25;;;;;;;0.82;0.50;;;;;;;9.60;100.00;94478.19;5115081;28;20055;-75
2022/02/17 10:06:07;;;;;;;3.20;0.80;;;;;;;9.52;100.00;94495.38;5107588;28;20108;-75
2022/02/17 10:08:33;;;;;;;1.40;0.52;;;;;;;9.43;100.00;94476.06;5114832;28;20249;-74
2022/02/17 10:10:59;;;;;;;1.95;0.80;;;;;;;9.37;100.00;94490.38;5106976;28;20047;-75
2022/02/17 10:13:25;;;;;;;16.48;1.70;;;;;;;9.12;100.00;94505.44;5111032;28;20115;-76
2022/02/17 10:15:52;;;;;;;6.15;1.33;;;;;;;8.88;100.00;94509.94;5109511;28;20040;-75
2022/02/17 10:18:21;;;;;;;8.13;1.10;;;;;;;8.79;100.00;94504.53;5107252;28;20397;-75
2022/02/17 10:20:56;;;;;;;0.63;0.60;;;;;;;8.76;100.00;94498.00;5109697;28;20039;-75
2022/02/17 10:23:27;;;;;;;0.60;0.60;;;;;;;8.86;100.00;94527.81;5107630;27;20129;-75
2022/02/17 10:26:10;;;;;;;2.05;0.60;;;;;;;8.78;100.00;94511.63;5104384;28;20048;-75
2022/02/17 10:28:45;;;;;;;3.70;0.60;;;;;;;8.76;100.00;94526.88;5102330;28;20516;-75
2022/02/17 10:31:23;;;;;;;1.60;0.50;;;;;;;8.75;100.00;94533.19;5103675;28;20099;-75
2022/02/17 10:33:54;;;;;;;4.72;1.00;;;;;;;8.77;100.00;94531.06;5096766;28;20043;-76
2022/02/17 10:36:38;;;;;;;2.42;0.88;;;;;;;8.75;100.00;94527.94;5102361;28;20040;-75
2022/02/17 10:39:09;;;;;;;1.70;0.83;;;;;;;8.69;100.00;94534.28;5103731;28;20043;-75
2022/02/17 10:41:48;;;;;;;1.23;0.80;;;;;;;8.66;100.00;94534.84;5116532;28;20040;-72
2022/02/17 10:44:15;;;;;;;5.00;0.90;;;;;;;8.57;100.00;94557.53;5105562;28;20036;-73
2022/02/17 10:46:41;;;;;;;3.00;1.05;;;;;;;8.44;100.00;94562.38;5106872;27;20047;-73
2022/02/17 10:49:15;;;;;;;3.53;1.40;;;;;;;8.17;100.00;94570.75;5106111;28;20077;-74
2022/02/17 10:51:42;;;;;;;3.28;1.30;;;;;;;7.92;100.00;94579.63;5107600;27;20036;-75
2022/02/17 10:54:08;;;;;;;6.30;1.35;;;;;;;7.77;100.00;94604.88;5109671;28;20049;-75
2022/02/17 10:56:35;;;;;;;5.60;1.42;;;;;;;7.64;100.00;94595.00;5101733;27;20151;-74
2022/02/17 10:59:03;;;;;;;6.63;1.50;;;;;;;7.61;100.00;94606.03;5109252;28;20043;-75
2022/02/17 11:01:29;;;;;;;7.68;1.80;;;;;;;7.66;100.00;94608.63;5115072;27;20038;-75
2022/02/17 11:03:54;;;;;;;4.18;1.55;;;;;;;7.59;100.00;94623.84;5106149;27;20035;-75
2022/02/17 11:06:21;;;;;;;5.72;1.30;;;;;;;7.54;100.00;94652.69;5122973;27;20064;-75
2022/02/17 11:08:51;;;;;;;3.92;1.38;;;;;;;7.54;100.00;94605.56;5113006;27;20537;-74
2022/02/17 11:11:20;;;;;;;4.82;1.33;;;;;;;7.68;100.00;94627.44;5089939;28;20043;-75
2022/02/17 11:13:47;;;;;;;4.63;1.30;;;;;;;7.69;100.00;94636.09;5100433;27;20035;-74
2022/02/17 11:16:15;;;;;;;5.68;1.50;;;;;;;7.79;100.00;94639.44;5109009;27;20050;-75
2022/02/17 11:18:42;;;;;;;1.30;0.95;;;;;;;8.26;100.00;94662.66;5105878;27;20035;-74
2022/02/17 11:21:14;;;;;;;6.47;1.52;;;;;;;8.55;100.00;94646.19;5111661;27;20092;-73
2022/02/17 11:23:40;;;;;;;3.80;1.10;;;;;;;8.42;100.00;94651.00;5098412;28;20052;-78
2022/02/17 11:26:22;;;;;;;5.45;1.13;;;;;;;9.39;100.00;94671.25;5103086;28;20110;-77
2022/02/17 11:28:48;;;;;;;6.25;1.30;;;;;;;8.76;100.00;94659.88;5090526;28;20047;-77
2022/02/17 11:31:13;;;;;;;7.15;1.45;;;;;;;8.66;100.00;94666.00;5103752;28;20047;-78
2022/02/17 11:33:53;;;;;;;5.82;1.40;;;;;;;8.42;100.00;94684.28;5102560;28;20455;-74